createdAt,value
2023-02-25T00:00:18.156Z,8.81
2023-02-25T00:02:49.988Z,8.65
2023-02-25T00:05:18.806Z,8.55
2023-02-25T00:07:46.001Z,8.74
2023-02-25T00:10:17.083Z,8.68
2023-02-25T00:12:44.990Z,8.31
2023-02-25T00:15:14.916Z,8.34
2023-02-25T00:17:44.845Z,8.55
2023-02-25T00:20:14.071Z,8.63
2023-02-25T00:22:41.545Z,8.41
2023-02-25T00:25:09.678Z,8.39
2023-02-25T00:27:37.511Z,8.43
2023-02-25T00:30:05.729Z,8.40
2023-02-25T00:32:35.443Z,8.46
2023-02-25T00:35:02.760Z,8.64
2023-02-25T00:37:29.811Z,8.67
2023-02-25T00:40:02.222Z,8.38
2023-02-25T00:42:29.025Z,8.46
2023-02-25T00:44:55.811Z,8.42
2023-02-25T00:47:35.262Z,7.97
2023-02-25T00:50:02.488Z,8.13
2023-02-25T00:52:29.744Z,8.10
2023-02-25T00:54:57.097Z,7.95
2023-02-25T00:57:24.605Z,8.16
2023-02-25T01:17:01.780Z,7.91
2023-02-25T01:19:31.838Z,7.54
2023-02-25T01:22:05.661Z,7.69
2023-02-25T01:24:35.698Z,7.70
2023-02-25T02:16:13.147Z,8.35
2023-02-25T02:18:48.168Z,8.38
2023-02-25T02:21:48.090Z,7.98
2023-02-25T02:24:29.889Z,7.56
2023-02-25T02:27:40.037Z,7.73
2023-02-25T02:30:38.573Z,7.69
2023-02-25T02:33:46.223Z,7.61
2023-02-25T02:36:39.767Z,7.79
2023-02-25T02:39:19.604Z,7.60
2023-02-25T02:42:05.178Z,7.69
2023-02-25T02:45:19.531Z,7.88
2023-02-25T02:48:18.544Z,7.84
2023-02-25T02:54:00.130Z,7.72
2023-02-25T02:56:31.066Z,7.55
2023-02-25T02:59:08.461Z,7.71
2023-02-25T03:01:42.532Z,7.83
2023-02-25T03:04:16.038Z,7.93
2023-02-25T03:06:56.016Z,7.79
2023-02-25T03:09:30.794Z,7.91
2023-02-25T03:16:38.382Z,7.63
2023-02-25T03:22:29.400Z,7.59
2023-02-25T04:42:35.519Z,7.39
2023-02-25T05:18:39.873Z,7.37
2023-02-25T05:48:42.287Z,7.91
2023-02-25T06:05:19.127Z,8.34
2023-02-25T06:07:46.134Z,8.21
2023-02-25T06:10:13.046Z,8.24
2023-02-25T08:53:55.456Z,12.47
2023-02-25T09:48:03.694Z,13.84
2023-02-25T10:49:31.356Z,15.63
2023-02-25T11:21:59.539Z,15.79
2023-02-25T11:27:42.902Z,15.87
2023-02-25T12:08:05.174Z,15.51
2023-02-25T12:17:12.566Z,15.64
2023-02-25T12:20:05.127Z,15.61
2023-02-25T12:22:47.794Z,15.62
2023-02-25T12:32:13.168Z,15.58
2023-02-25T12:38:19.975Z,15.59
2023-02-25T12:44:14.369Z,15.39
2023-02-25T12:47:02.424Z,15.56
2023-02-25T12:50:07.070Z,15.49
2023-02-25T12:53:16.788Z,15.57
2023-02-25T12:56:20.527Z,15.57
2023-02-25T12:58:57.835Z,15.60
2023-02-25T13:02:03.345Z,15.52
2023-02-25T13:05:02.290Z,15.48
2023-02-25T13:07:44.198Z,15.49
2023-02-25T13:10:58.952Z,15.41
2023-02-25T13:22:17.211Z,15.37
2023-02-25T13:32:58.838Z,15.39
2023-02-25T13:39:26.614Z,15.38
2023-02-25T13:45:34.276Z,15.30
2023-02-25T13:48:41.643Z,15.34
2023-02-25T13:51:34.777Z,15.24
2023-02-25T13:54:19.739Z,15.14
2023-02-25T13:58:06.272Z,15.13
2023-02-25T14:01:21.725Z,15.21
2023-02-25T14:21:49.321Z,14.98
2023-02-25T14:24:43.636Z,15.01
2023-02-25T14:31:03.823Z,15.00
2023-02-25T14:33:42.020Z,14.94
2023-02-25T14:36:37.324Z,15.02
2023-02-25T14:39:13.797Z,15.04
2023-02-25T14:42:21.936Z,15.16
2023-02-25T14:53:39.533Z,15.20
2023-02-25T14:56:48.993Z,15.15
2023-02-25T15:03:33.135Z,15.11
2023-02-25T15:06:39.614Z,15.05
2023-02-25T15:10:11.974Z,14.98
2023-02-25T15:13:03.304Z,14.79
2023-02-25T15:16:22.800Z,14.71
2023-02-25T15:19:20.064Z,14.60
2023-02-25T15:21:54.995Z,14.49
2023-02-25T15:28:44.037Z,14.41
2023-02-25T15:33:14.794Z,14.39
2023-02-25T15:50:27.975Z,14.39
2023-02-25T15:53:46.232Z,14.42
2023-02-25T15:56:13.327Z,14.35
2023-02-25T15:59:45.670Z,14.34
2023-02-25T16:02:51.894Z,14.38
2023-02-25T16:05:27.376Z,14.45
2023-02-25T16:09:15.572Z,14.46
2023-02-25T16:12:20.729Z,14.37
2023-02-25T16:17:52.675Z,14.38
2023-02-25T16:20:51.886Z,14.34
2023-02-25T16:23:19.648Z,14.31
2023-02-25T16:26:18.560Z,14.36
2023-02-25T16:29:12.381Z,14.28
2023-02-25T16:31:56.161Z,14.38
2023-02-25T18:08:07.102Z,13.85
2023-02-25T18:10:44.341Z,13.87
2023-02-25T18:22:02.885Z,13.91
2023-02-25T18:45:15.847Z,13.69
2023-02-25T18:48:27.700Z,13.71
2023-02-25T19:12:36.915Z,13.55
2023-02-25T19:15:09.441Z,13.65
2023-02-25T19:17:36.636Z,13.64
2023-02-25T19:20:05.096Z,13.64
2023-02-25T19:22:32.597Z,13.56
2023-02-25T19:24:59.679Z,13.66
2023-02-25T19:27:31.565Z,13.55
2023-02-25T19:30:03.737Z,13.50
2023-02-25T19:43:13.954Z,13.51
2023-02-25T19:48:23.427Z,13.26
2023-02-25T19:50:56.540Z,13.42
2023-02-25T20:06:03.605Z,13.17
2023-02-25T20:16:47.562Z,13.14
2023-02-25T20:19:14.657Z,13.21
2023-02-25T20:21:44.900Z,13.18
2023-02-25T20:24:12.539Z,13.23
2023-02-25T20:26:49.156Z,13.30
2023-02-25T20:29:16.426Z,13.33
2023-02-25T20:41:30.063Z,13.20
2023-02-25T20:43:57.614Z,13.27
2023-02-25T20:46:28.690Z,13.26
2023-02-25T20:52:05.843Z,13.19
2023-02-25T20:57:23.372Z,13.10
2023-02-25T21:00:15.080Z,13.14
2023-02-25T21:02:43.192Z,13.08
2023-02-25T21:13:30.126Z,13.10
2023-02-25T21:16:01.347Z,13.14
2023-02-25T21:18:28.898Z,13.10
2023-02-25T21:29:35.273Z,12.82
2023-02-25T21:38:14.815Z,12.79
2023-02-25T21:56:54.153Z,12.91
2023-02-25T21:59:21.297Z,12.68
2023-02-25T22:01:51.563Z,12.58
2023-02-25T22:04:21.209Z,12.68
2023-02-25T22:06:49.423Z,12.58
2023-02-25T22:17:43.542Z,12.61
2023-02-25T22:20:11.455Z,12.57
2023-02-25T22:23:09.526Z,12.72
2023-02-25T22:25:38.996Z,12.57
2023-02-25T22:28:20.958Z,12.71
2023-02-25T22:34:41.638Z,12.93
2023-02-25T22:37:11.054Z,12.85
2023-02-25T22:39:45.530Z,12.95
2023-02-25T22:42:31.296Z,12.96
2023-02-25T22:44:59.218Z,13.09
2023-02-25T22:47:29.689Z,12.97
2023-02-25T22:50:07.982Z,12.86
2023-02-25T22:52:35.810Z,12.99
2023-02-25T22:55:06.623Z,12.89
2023-02-25T22:57:43.597Z,13.05
2023-02-25T23:00:17.292Z,12.88
2023-02-25T23:02:54.100Z,13.02
2023-02-25T23:05:21.716Z,13.06
2023-02-25T23:07:57.072Z,12.99
2023-02-25T23:10:28.818Z,13.10
2023-02-25T23:13:01.285Z,13.12
2023-02-25T23:15:29.214Z,13.14
2023-02-25T23:17:56.961Z,13.29
2023-02-25T23:20:26.926Z,13.22
2023-02-25T23:22:54.416Z,12.99
2023-02-25T23:25:21.886Z,13.13
2023-02-25T23:28:01.012Z,13.14
2023-02-25T23:30:28.908Z,13.08
2023-02-25T23:32:58.017Z,13.16
2023-02-25T23:35:25.719Z,12.96
2023-02-25T23:37:57.895Z,13.03
2023-02-25T23:40:38.387Z,13.07
2023-02-25T23:43:05.750Z,13.07
2023-02-25T23:45:33.059Z,13.09
2023-02-25T23:48:00.318Z,13.08
2023-02-25T23:50:27.835Z,13.12
2023-02-25T23:52:54.930Z,13.05
2023-02-25T23:55:24.950Z,13.09
2023-02-25T23:57:53.684Z,13.10
